Time;durP1;ratioP1;P1;durP2;ratioP2;P2;SDS_P1;SDS_P2;PMS_P1;PMS_P2;Temp;Humidity;BMP_temperature;BMP_pressure;BME280_temperature;BME280_humidity;BME280_pressure;Samples;Min_cycle;Max_cycle;Signal;HPM_P1;HPM_P2
2021/07/30 00:00:40;;;;;;;3.90;3.42;;;;;;;;;;6244354;28;20072;-82
2021/07/30 00:03:42;;;;;;;3.80;2.90;;;;;;;;;;6247556;28;20072;-82
2021/07/30 00:07:00;;;;;;;5.60;3.22;;;;;;;;;;6248906;28;20046;-82
2021/07/30 00:10:02;;;;;;;5.50;3.53;;;;;;;;;;6249586;28;20046;-82
2021/07/30 00:13:04;;;;;;;4.38;2.70;;;;;;;;;;6186642;28;20109;-82
2021/07/30 00:16:05;;;;;;;3.38;2.70;;;;;;;;;;6229935;28;20041;-82
2021/07/30 00:19:07;;;;;;;4.18;2.85;;;;;;;;;;6226034;28;20065;-82
2021/07/30 00:22:09;;;;;;;4.20;3.47;;;;;;;;;;6227465;28;20052;-82
2021/07/30 00:25:11;;;;;;;5.05;3.38;;;;;;;;;;6245566;28;20041;-83
2021/07/30 00:28:12;;;;;;;6.32;3.40;;;;;;;;;;6243926;28;20061;-82
2021/07/30 00:31:14;;;;;;;5.05;3.22;;;;;;;;;;6206716;28;20110;-81
2021/07/30 00:34:16;;;;;;;4.35;3.40;;;;;;;;;;6208033;28;20105;-82
2021/07/30 00:37:17;;;;;;;5.10;3.10;;;;;;;;;;6230371;28;20518;-82
2021/07/30 00:40:19;;;;;;;5.43;3.55;;;;;;;;;;6229896;28;20096;-82
2021/07/30 00:43:20;;;;;;;5.55;3.45;;;;;;;;;;6227562;28;20042;-82
2021/07/30 00:46:25;;;;;;;4.53;2.90;;;;;;;;;;6236691;28;20065;-82
2021/07/30 00:49:27;;;;;;;8.25;3.50;;;;;;;;;;6231674;28;20042;-82
2021/07/30 00:52:29;;;;;;;4.22;3.33;;;;;;;;;;6249325;28;20080;-82
2021/07/30 00:55:32;;;;;;;6.28;3.17;;;;;;;;;;6246448;28;20046;-83
2021/07/30 00:58:34;;;;;;;;;;;;;;;;;;6247671;28;20064;-82
2021/07/30 01:01:36;;;;;;;6.07;3.25;;;;;;;;;;6241918;28;19921;-82
2021/07/30 01:04:38;;;;;;;5.88;3.60;;;;;;;;;;6230767;28;20071;-82
2021/07/30 01:07:40;;;;;;;4.68;3.35;;;;;;;;;;6208997;28;20113;-82
2021/07/30 01:10:41;;;;;;;6.68;3.75;;;;;;;;;;6247646;28;20076;-83
2021/07/30 01:13:43;;;;;;;5.65;3.65;;;;;;;;;;6215116;28;20061;-82
2021/07/30 01:16:45;;;;;;;5.72;3.78;;;;;;;;;;6222262;28;20106;-82
2021/07/30 01:19:46;;;;;;;6.63;3.40;;;;;;;;;;6224442;28;20046;-82
2021/07/30 01:22:56;;;;;;;5.43;3.83;;;;;;;;;;6226868;28;20161;-83
2021/07/30 01:25:58;;;;;;;4.53;3.80;;;;;;;;;;6240728;28;20213;-82
2021/07/30 01:28:59;;;;;;;4.70;3.20;;;;;;;;;;6227000;28;20054;-82
2021/07/30 01:32:01;;;;;;;4.47;3.22;;;;;;;;;;6226912;28;20132;-82
2021/07/30 01:35:03;;;;;;;5.93;3.28;;;;;;;;;;6214389;28;20125;-83
2021/07/30 01:38:05;;;;;;;5.38;3.10;;;;;;;;;;6213804;28;20069;-83
2021/07/30 01:41:09;;;;;;;6.30;3.25;;;;;;;;;;6249498;28;20453;-83
2021/07/30 01:44:12;;;;;;;6.13;3.33;;;;;;;;;;6223773;28;20153;-83
2021/07/30 01:47:13;;;;;;;6.57;3.10;;;;;;;;;;6238374;28;20216;-82
2021/07/30 01:50:15;;;;;;;4.70;3.40;;;;;;;;;;6222781;28;20522;-83
2021/07/30 01:53:17;;;;;;;6.43;3.38;;;;;;;;;;6201783;28;20109;-84
2021/07/30 01:56:18;;;;;;;6.28;3.47;;;;;;;;;;6207757;28;20133;-82
2021/07/30 01:59:20;;;;;;;6.50;3.67;;;;;;;;;;6224044;28;20116;-82
2021/07/30 02:02:21;;;;;;;5.07;3.58;;;;;;;;;;6232627;28;20128;-82
2021/07/30 02:05:23;;;;;;;4.38;3.45;;;;;;;;;;6248736;28;20376;-82
2021/07/30 02:08:25;;;;;;;5.35;3.88;;;;;;;;;;6250851;28;20049;-82
2021/07/30 02:11:27;;;;;;;4.47;3.42;;;;;;;;;;6232593;28;20075;-82
2021/07/30 02:14:28;;;;;;;5.82;3.20;;;;;;;;;;6248549;28;20037;-82
2021/07/30 02:17:30;;;;;;;6.65;3.85;;;;;;;;;;6249344;28;20123;-82
2021/07/30 02:20:31;;;;;;;3.85;3.42;;;;;;;;;;6231104;28;20045;-83
2021/07/30 02:23:33;;;;;;;6.38;3.63;;;;;;;;;;6249648;28;20045;-82
2021/07/30 02:26:36;;;;;;;4.65;3.20;;;;;;;;;;6215572;28;20347;-82
2021/07/30 02:29:37;;;;;;;7.07;3.20;;;;;;;;;;6248529;28;20084;-83
2021/07/30 02:32:39;;;;;;;5.10;3.50;;;;;;;;;;6214806;28;20116;-82
2021/07/30 02:35:40;;;;;;;4.82;3.20;;;;;;;;;;6214987;28;20102;-82
2021/07/30 02:38:42;;;;;;;6.00;2.95;;;;;;;;;;6225750;28;20088;-82
2021/07/30 02:41:43;;;;;;;4.45;3.35;;;;;;;;;;6225306;28;20050;-82
2021/07/30 02:44:45;;;;;;;5.40;3.17;;;;;;;;;;6231625;28;20045;-82
2021/07/30 02:47:47;;;;;;;7.43;3.35;;;;;;;;;;6249360;28;20065;-83
2021/07/30 02:50:49;;;;;;;6.03;3.28;;;;;;;;;;6248552;28;20896;-82
2021/07/30 02:53:50;;;;;;;3.38;3.08;;;;;;;;;;6245618;28;20042;-82
2021/07/30 02:56:52;;;;;;;5.72;3.53;;;;;;;;;;6248544;28;20104;-83
2021/07/30 02:59:53;;;;;;;4.65;3.35;;;;;;;;;;6183582;28;20141;-82
2021/07/30 03:02:55;;;;;;;4.18;3.35;;;;;;;;;;6223937;28;20130;-82
2021/07/30 03:06:01;;;;;;;5.22;3.15;;;;;;;;;;6202464;28;20633;-81
2021/07/30 03:09:02;;;;;;;4.25;3.13;;;;;;;;;;6224110;28;20626;-82
2021/07/30 03:12:04;;;;;;;4.50;3.65;;;;;;;;;;6223760;28;20052;-82
2021/07/30 03:15:06;;;;;;;5.35;3.05;;;;;;;;;;6240954;28;20124;-81
2021/07/30 03:18:08;;;;;;;6.10;3.30;;;;;;;;;;6249331;28;20077;-81
2021/07/30 03:21:10;;;;;;;4.30;3.20;;;;;;;;;;6223312;28;20046;-81
2021/07/30 03:24:11;;;;;;;4.80;3.22;;;;;;;;;;6205696;28;20045;-81
2021/07/30 03:27:13;;;;;;;5.25;3.35;;;;;;;;;;6226192;28;20125;-81
2021/07/30 03:30:15;;;;;;;5.30;3.63;;;;;;;;;;6239575;28;20110;-81
2021/07/30 03:33:17;;;;;;;4.50;3.27;;;;;;;;;;6205464;28;20648;-81
2021/07/30 03:36:19;;;;;;;5.68;3.50;;;;;;;;;;6220825;28;20053;-81
2021/07/30 03:39:20;;;;;;;5.57;3.42;;;;;;;;;;6223615;28;20115;-81
2021/07/30 03:42:22;;;;;;;7.47;4.28;;;;;;;;;;6246521;28;20046;-81
2021/07/30 03:45:24;;;;;;;6.25;3.60;;;;;;;;;;6227489;28;20037;-81
2021/07/30 03:48:25;;;;;;;3.90;3.20;;;;;;;;;;6220376;28;20064;-81
2021/07/30 03:51:31;;;;;;;5.38;3.50;;;;;;;;;;6218571;28;20042;-81
2021/07/30 03:54:32;;;;;;;6.65;3.13;;;;;;;;;;6227817;28;20038;-81
2021/07/30 03:57:34;;;;;;;4.15;2.90;;;;;;;;;;6229443;28;20077;-81
2021/07/30 04:00:38;;;;;;;5.13;3.50;;;;;;;;;;6186080;28;20038;-81
2021/07/30 04:03:42;;;;;;;5.15;3.40;;;;;;;;;;6212879;28;20046;-81
2021/07/30 04:06:44;;;;;;;5.00;3.67;;;;;;;;;;6223614;28;20038;-82
2021/07/30 04:09:46;;;;;;;4.60;2.90;;;;;;;;;;6209371;28;20109;-81
2021/07/30 04:12:47;;;;;;;5.25;3.33;;;;;;;;;;6228011;28;20495;-82
2021/07/30 04:15:49;;;;;;;5.15;3.30;;;;;;;;;;6247228;28;20086;-82
2021/07/30 04:18:53;;;;;;;3.78;3.13;;;;;;;;;;6203077;28;20042;-82
2021/07/30 04:21:55;;;;;;;4.28;3.63;;;;;;;;;;6218558;28;20107;-82
2021/07/30 04:24:57;;;;;;;7.68;3.42;;;;;;;;;;6236111;28;20084;-82
2021/07/30 04:27:58;;;;;;;5.78;3.50;;;;;;;;;;6244141;28;20046;-82
2021/07/30 04:31:03;;;;;;;9.35;3.80;;;;;;;;;;6206914;28;20045;-82
2021/07/30 04:34:06;;;;;;;6.78;3.80;;;;;;;;;;6239412;28;20567;-82
2021/07/30 04:37:08;;;;;;;8.18;3.58;;;;;;;;;;6229221;28;20113;-82
2021/07/30 04:40:10;;;;;;;5.07;4.00;;;;;;;;;;6229942;28;20057;-82
2021/07/30 04:43:11;;;;;;;5.10;3.47;;;;;;;;;;6227349;28;20101;-82
2021/07/30 04:46:14;;;;;;;5.68;3.30;;;;;;;;;;6194028;28;20034;-82
2021/07/30 04:49:16;;;;;;;5.80;3.47;;;;;;;;;;6234063;28;20638;-82
2021/07/30 04:52:17;;;;;;;5.78;3.75;;;;;;;;;;6204102;28;20053;-81
2021/07/30 04:55:19;;;;;;;6.45;3.88;;;;;;;;;;6212595;28;20042;-82
2021/07/30 04:58:21;;;;;;;5.32;3.70;;;;;;;;;;6209869;28;20062;-82
2021/07/30 05:01:22;;;;;;;5.90;3.45;;;;;;;;;;6225397;28;20069;-83
2021/07/30 05:04:24;;;;;;;6.95;3.60;;;;;;;;;;6172713;28;20053;-82
2021/07/30 05:07:26;;;;;;;8.60;3.60;;;;;;;;;;6210241;28;20206;-83
2021/07/30 05:10:27;;;;;;;5.13;3.97;;;;;;;;;;6233548;28;20080;-82
2021/07/30 05:13:29;;;;;;;7.40;4.20;;;;;;;;;;6233511;28;20101;-82
2021/07/30 05:16:31;;;;;;;6.43;4.00;;;;;;;;;;6252409;28;20068;-82
2021/07/30 05:19:33;;;;;;;5.43;3.90;;;;;;;;;;6241263;28;20048;-82
2021/07/30 05:22:34;;;;;;;7.93;3.92;;;;;;;;;;6243476;28;20133;-82
2021/07/30 05:25:36;;;;;;;5.50;3.85;;;;;;;;;;6209150;28;20057;-82
2021/07/30 05:28:38;;;;;;;5.65;4.15;;;;;;;;;;6222822;28;20123;-82
2021/07/30 05:31:40;;;;;;;6.57;3.65;;;;;;;;;;6224704;28;20571;-82
2021/07/30 05:34:41;;;;;;;6.15;4.40;;;;;;;;;;6225653;28;20052;-82
2021/07/30 05:37:43;;;;;;;7.03;4.25;;;;;;;;;;6225434;28;20121;-82
2021/07/30 05:40:45;;;;;;;5.43;4.07;;;;;;;;;;6229241;28;20053;-82
2021/07/30 05:43:49;;;;;;;7.70;4.67;;;;;;;;;;6222237;28;20111;-82
2021/07/30 05:46:50;;;;;;;8.10;4.47;;;;;;;;;;6225804;28;20048;-82
2021/07/30 05:49:52;;;;;;;6.65;4.30;;;;;;;;;;6224645;28;20053;-82
2021/07/30 05:52:54;;;;;;;7.30;4.93;;;;;;;;;;6225049;28;20149;-82
2021/07/30 05:55:55;;;;;;;9.15;4.75;;;;;;;;;;6225211;28;20066;-82
2021/07/30 05:58:57;;;;;;;5.63;4.38;;;;;;;;;;6224725;28;20058;-82
2021/07/30 06:01:59;;;;;;;6.20;4.38;;;;;;;;;;6219056;28;20050;-82
2021/07/30 06:05:01;;;;;;;7.72;4.40;;;;;;;;;;6180649;28;20053;-82
2021/07/30 06:08:05;;;;;;;8.45;4.70;;;;;;;;;;6207827;28;20042;-82
2021/07/30 06:11:07;;;;;;;7.18;4.15;;;;;;;;;;6223971;28;20101;-83
2021/07/30 06:14:08;;;;;;;5.32;4.00;;;;;;;;;;6245723;28;20057;-84
2021/07/30 06:17:11;;;;;;;7.72;4.45;;;;;;;;;;6229769;28;20068;-82
2021/07/30 06:20:13;;;;;;;7.38;4.00;;;;;;;;;;6217734;28;20554;-82
2021/07/30 06:23:15;;;;;;;6.40;3.47;;;;;;;;;;6222824;28;20068;-82
2021/07/30 06:26:16;;;;;;;6.55;4.10;;;;;;;;;;6222657;28;20127;-82
2021/07/30 06:29:18;;;;;;;5.03;3.97;;;;;;;;;;6238571;28;20056;-82
2021/07/30 06:32:19;;;;;;;6.78;4.20;;;;;;;;;;6227516;28;20063;-83
2021/07/30 06:35:21;;;;;;;5.68;3.67;;;;;;;;;;6240214;28;20087;-83
2021/07/30 06:38:23;;;;;;;4.78;3.70;;;;;;;;;;6243161;28;20084;-83
2021/07/30 06:41:25;;;;;;;8.23;3.95;;;;;;;;;;6227808;28;20113;-82
2021/07/30 06:44:27;;;;;;;6.78;4.28;;;;;;;;;;6208409;28;20116;-83
2021/07/30 06:47:28;;;;;;;5.00;3.85;;;;;;;;;;6239797;28;20087;-83
2021/07/30 06:50:30;;;;;;;7.43;3.97;;;;;;;;;;6216576;28;20115;-83
2021/07/30 06:53:31;;;;;;;4.75;3.60;;;;;;;;;;6229783;28;20045;-84
2021/07/30 06:56:34;;;;;;;6.05;3.95;;;;;;;;;;6247090;28;20042;-83
2021/07/30 06:59:36;;;;;;;4.40;4.00;;;;;;;;;;6240312;28;20053;-84
2021/07/30 07:02:37;;;;;;;4.55;3.67;;;;;;;;;;6242267;28;20064;-83
2021/07/30 07:05:40;;;;;;;;;;;;;;;;;;6244820;28;20047;-83
2021/07/30 07:08:42;;;;;;;5.93;3.30;;;;;;;;;;6246310;28;20083;-84
2021/07/30 07:11:44;;;;;;;7.13;3.17;;;;;;;;;;6228763;28;20053;-84
2021/07/30 07:14:46;;;;;;;4.38;2.85;;;;;;;;;;6222329;28;20121;-85
2021/07/30 07:17:48;;;;;;;4.18;3.20;;;;;;;;;;6247744;28;20759;-84
2021/07/30 07:20:55;;;;;;;4.18;2.80;;;;;;;;;;6247308;28;20486;-84
2021/07/30 07:23:56;;;;;;;4.15;3.38;;;;;;;;;;6247953;28;20049;-84
2021/07/30 07:26:58;;;;;;;4.15;2.90;;;;;;;;;;6225054;28;20057;-85
2021/07/30 07:30:00;;;;;;;7.18;3.67;;;;;;;;;;6222624;28;20057;-84
2021/07/30 07:33:01;;;;;;;4.40;3.15;;;;;;;;;;6239355;28;20041;-84
2021/07/30 07:36:03;;;;;;;5.93;2.88;;;;;;;;;;6221965;28;20099;-84
2021/07/30 07:39:05;;;;;;;5.57;2.47;;;;;;;;;;6221744;28;20046;-84
2021/07/30 07:42:07;;;;;;;3.67;2.20;;;;;;;;;;6232547;28;20515;-84
2021/07/30 07:45:09;;;;;;;3.80;2.45;;;;;;;;;;6207641;28;20419;-84
2021/07/30 07:48:11;;;;;;;2.63;2.00;;;;;;;;;;6217424;28;20051;-83
2021/07/30 07:51:12;;;;;;;3.97;2.30;;;;;;;;;;6240485;28;20452;-84
2021/07/30 07:54:14;;;;;;;3.75;2.55;;;;;;;;;;6228404;28;20635;-84
2021/07/30 07:57:15;;;;;;;6.25;2.17;;;;;;;;;;6202737;28;20567;-83
2021/07/30 08:00:17;;;;;;;3.22;2.40;;;;;;;;;;6241566;28;20115;-83
2021/07/30 08:03:19;;;;;;;3.85;2.50;;;;;;;;;;6223858;28;20124;-84
2021/07/30 08:06:22;;;;;;;5.65;2.30;;;;;;;;;;6241607;28;20283;-83
2021/07/30 08:09:24;;;;;;;4.97;2.45;;;;;;;;;;6203319;28;20574;-83
2021/07/30 08:12:25;;;;;;;3.47;1.95;;;;;;;;;;6198794;28;20048;-84
2021/07/30 08:15:27;;;;;;;4.00;2.22;;;;;;;;;;6217200;28;20072;-84
2021/07/30 08:18:29;;;;;;;2.75;2.15;;;;;;;;;;6216741;28;20093;-83
2021/07/30 08:21:31;;;;;;;3.55;2.30;;;;;;;;;;6170762;28;20130;-82
2021/07/30 08:24:32;;;;;;;4.63;2.22;;;;;;;;;;6193921;28;20129;-83
2021/07/30 08:27:35;;;;;;;4.68;2.17;;;;;;;;;;6213586;28;20155;-83
2021/07/30 08:30:36;;;;;;;3.60;2.20;;;;;;;;;;6218507;28;20048;-83
2021/07/30 08:33:38;;;;;;;3.35;2.10;;;;;;;;;;6219624;28;20058;-82
2021/07/30 08:36:41;;;;;;;5.87;2.03;;;;;;;;;;6220814;28;20132;-83
2021/07/30 08:39:43;;;;;;;3.88;2.00;;;;;;;;;;6219092;28;20392;-83
2021/07/30 08:42:46;;;;;;;5.15;2.13;;;;;;;;;;6220797;28;20081;-82
2021/07/30 08:45:51;;;;;;;2.95;2.35;;;;;;;;;;6219929;28;20057;-82
2021/07/30 08:48:54;;;;;;;3.85;1.98;;;;;;;;;;6221579;28;20092;-82
2021/07/30 08:52:06;;;;;;;4.65;2.00;;;;;;;;;;6223362;28;20197;-82
2021/07/30 08:55:09;;;;;;;3.42;2.20;;;;;;;;;;6230273;28;20132;-82
2021/07/30 08:58:14;;;;;;;4.40;2.03;;;;;;;;;;6219788;28;20046;-81
2021/07/30 09:01:15;;;;;;;4.18;1.80;;;;;;;;;;6220518;28;20110;-82
2021/07/30 09:04:28;;;;;;;4.97;2.13;;;;;;;;;;6224429;28;20038;-82
2021/07/30 09:07:40;;;;;;;4.03;2.00;;;;;;;;;;6232735;28;20048;-82
2021/07/30 09:10:43;;;;;;;3.53;1.98;;;;;;;;;;6235246;28;20045;-83
2021/07/30 09:13:44;;;;;;;3.20;2.03;;;;;;;;;;6249411;28;20133;-81
2021/07/30 09:16:50;;;;;;;4.32;2.13;;;;;;;;;;6229668;28;20061;-82
2021/07/30 09:20:00;;;;;;;2.15;1.85;;;;;;;;;;6230875;28;20415;-81
2021/07/30 09:23:02;;;;;;;3.50;2.10;;;;;;;;;;6218504;28;20041;-86
2021/07/30 09:26:06;;;;;;;2.70;1.98;;;;;;;;;;6249470;28;20037;-81
2021/07/30 09:29:15;;;;;;;3.97;1.80;;;;;;;;;;6246069;28;20037;-81
2021/07/30 09:32:17;;;;;;;3.13;2.60;;;;;;;;;;6243914;28;20087;-84
2021/07/30 09:35:19;;;;;;;3.42;2.50;;;;;;;;;;6214999;28;20123;-84
2021/07/30 09:38:21;;;;;;;8.73;5.35;;;;;;;;;;6218975;28;20056;-85
2021/07/30 09:41:23;;;;;;;4.53;2.40;;;;;;;;;;6235496;28;20095;-81
2021/07/30 09:44:25;;;;;;;3.90;2.10;;;;;;;;;;6200921;28;20471;-82
2021/07/30 09:47:35;;;;;;;5.15;2.53;;;;;;;;;;6236430;28;20525;-84
2021/07/30 09:50:37;;;;;;;3.65;2.00;;;;;;;;;;6219849;28;20037;-81
2021/07/30 09:53:39;;;;;;;6.20;2.80;;;;;;;;;;6221976;28;20113;-82
2021/07/30 09:56:41;;;;;;;3.70;2.95;;;;;;;;;;6219476;28;20114;-84
2021/07/30 09:59:44;;;;;;;3.63;2.23;;;;;;;;;;6221538;28;20132;-83
2021/07/30 10:02:46;;;;;;;4.25;2.30;;;;;;;;;;6219441;28;20607;-83
2021/07/30 10:05:52;;;;;;;3.92;2.05;;;;;;;;;;6216522;28;20123;-84
2021/07/30 10:08:54;;;;;;;3.03;2.03;;;;;;;;;;6220465;28;20045;-84
2021/07/30 10:11:58;;;;;;;3.95;2.20;;;;;;;;;;6221092;28;20042;-83
2021/07/30 10:15:01;;;;;;;5.05;2.30;;;;;;;;;;6218242;28;20065;-83
2021/07/30 10:18:04;;;;;;;;;;;;;;;;;;6222096;28;20042;-82
2021/07/30 10:21:06;;;;;;;6.38;3.50;;;;;;;;;;6219472;28;20011;-82
2021/07/30 10:24:09;;;;;;;4.03;2.10;;;;;;;;;;6221349;28;20410;-83
2021/07/30 10:27:12;;;;;;;3.47;2.50;;;;;;;;;;6201083;28;20530;-83
2021/07/30 10:30:15;;;;;;;4.43;2.28;;;;;;;;;;6201894;28;20141;-82
2021/07/30 10:33:37;;;;;;;4.95;2.45;;;;;;;;;;6219362;28;20038;-84
2021/07/30 10:36:39;;;;;;;5.60;2.20;;;;;;;;;;6235355;28;20133;-83
2021/07/30 10:40:13;;;;;;;3.25;2.45;;;;;;;;;;6243170;28;20468;-82
2021/07/30 10:43:16;;;;;;;4.32;2.10;;;;;;;;;;6241788;28;20138;-81
2021/07/30 10:46:19;;;;;;;3.10;2.50;;;;;;;;;;6216555;28;20600;-82
2021/07/30 10:49:37;;;;;;;5.57;2.58;;;;;;;;;;6214419;28;20046;-85
2021/07/30 10:52:39;;;;;;;6.72;4.88;;;;;;;;;;6241975;28;20051;-83
2021/07/30 10:55:41;;;;;;;3.47;2.50;;;;;;;;;;6243135;28;20049;-81
2021/07/30 10:58:43;;;;;;;2.72;2.33;;;;;;;;;;6242003;28;20171;-83
2021/07/30 11:01:56;;;;;;;3.28;2.17;;;;;;;;;;6242245;28;20049;-84
2021/07/30 11:05:16;;;;;;;3.47;2.33;;;;;;;;;;6226388;28;20069;-83
2021/07/30 11:08:18;;;;;;;7.30;2.72;;;;;;;;;;6227627;28;20126;-81
2021/07/30 11:11:45;;;;;;;2.90;2.28;;;;;;;;;;6217749;28;20573;-82
2021/07/30 11:14:48;;;;;;;3.15;2.30;;;;;;;;;;6194898;28;20105;-81
2021/07/30 11:17:50;;;;;;;3.28;2.10;;;;;;;;;;6200302;28;20361;-81
2021/07/30 11:20:58;;;;;;;5.38;3.83;;;;;;;;;;6200605;28;20121;-82
2021/07/30 11:24:01;;;;;;;4.63;2.20;;;;;;;;;;6216361;28;20697;-81
2021/07/30 11:27:03;;;;;;;3.60;2.47;;;;;;;;;;6212959;28;20052;-81
2021/07/30 11:30:05;;;;;;;4.95;2.45;;;;;;;;;;6233086;28;20053;-81
2021/07/30 11:33:07;;;;;;;;;;;;;;;;;;6219925;28;20627;-81
2021/07/30 11:36:10;;;;;;;2.75;2.30;;;;;;;;;;6217675;28;19932;-80
2021/07/30 11:39:12;;;;;;;3.55;2.40;;;;;;;;;;6216213;28;20143;-81
2021/07/30 11:42:22;;;;;;;3.23;2.50;;;;;;;;;;6216330;28;20049;-81
2021/07/30 11:45:24;;;;;;;3.38;2.20;;;;;;;;;;6217430;28;20038;-81
2021/07/30 11:48:26;;;;;;;5.77;2.30;;;;;;;;;;6193850;28;20038;-81
2021/07/30 11:51:28;;;;;;;4.90;2.37;;;;;;;;;;6212236;28;20052;-82
2021/07/30 11:54:31;;;;;;;4.22;2.20;;;;;;;;;;6216899;28;20044;-82
2021/07/30 11:57:32;;;;;;;4.05;2.35;;;;;;;;;;6199738;28;20508;-81
2021/07/30 12:00:34;;;;;;;3.05;2.20;;;;;;;;;;6216694;28;20495;-82
2021/07/30 12:03:36;;;;;;;3.45;2.25;;;;;;;;;;6216311;28;20045;-81
2021/07/30 12:06:46;;;;;;;2.70;2.40;;;;;;;;;;6217104;28;20045;-82
2021/07/30 12:09:53;;;;;;;5.20;2.50;;;;;;;;;;6221577;28;20444;-81
2021/07/30 12:12:59;;;;;;;2.92;2.60;;;;;;;;;;6239095;28;20041;-82
2021/07/30 12:16:01;;;;;;;2.88;2.47;;;;;;;;;;6202742;28;20057;-81
2021/07/30 12:19:02;;;;;;;2.38;2.17;;;;;;;;;;6201257;28;20059;-80
2021/07/30 12:22:08;;;;;;;3.40;2.20;;;;;;;;;;6222475;28;20125;-80
2021/07/30 12:25:15;;;;;;;3.45;2.42;;;;;;;;;;6220547;28;20037;-81
2021/07/30 12:28:18;;;;;;;5.43;2.67;;;;;;;;;;6219626;28;20041;-82
2021/07/30 12:31:21;;;;;;;5.13;2.50;;;;;;;;;;6219513;28;20081;-79
2021/07/30 12:34:23;;;;;;;2.72;2.35;;;;;;;;;;6235324;28;20042;-81
2021/07/30 12:37:27;;;;;;;3.13;2.60;;;;;;;;;;6220367;28;20038;-80
2021/07/30 12:40:28;;;;;;;3.08;2.42;;;;;;;;;;6235486;28;20044;-81
2021/07/30 12:43:36;;;;;;;4.60;2.25;;;;;;;;;;6219121;28;20041;-82
2021/07/30 12:46:50;;;;;;;4.95;2.50;;;;;;;;;;6220268;28;20116;-81
2021/07/30 12:49:57;;;;;;;3.65;2.50;;;;;;;;;;6233201;28;20125;-81
2021/07/30 12:53:17;;;;;;;3.83;2.00;;;;;;;;;;6220723;28;20559;-81
2021/07/30 12:56:19;;;;;;;7.10;2.50;;;;;;;;;;6219974;28;20042;-81
2021/07/30 12:59:54;;;;;;;5.23;2.70;;;;;;;;;;6217127;28;20059;-81
2021/07/30 13:03:00;;;;;;;2.80;2.60;;;;;;;;;;6216707;28;20046;-81
2021/07/30 13:06:06;;;;;;;3.00;2.70;;;;;;;;;;6217479;28;20045;-81
2021/07/30 13:09:07;;;;;;;5.00;2.78;;;;;;;;;;6219676;28;20538;-80
2021/07/30 13:12:09;;;;;;;4.03;2.67;;;;;;;;;;6217529;28;20100;-81
2021/07/30 13:15:13;;;;;;;2.33;2.13;;;;;;;;;;6222274;28;20065;-81
2021/07/30 13:18:16;;;;;;;2.78;2.42;;;;;;;;;;6198519;28;20116;-81
2021/07/30 13:21:17;;;;;;;3.78;2.38;;;;;;;;;;6201351;28;21230;-81
2021/07/30 13:24:20;;;;;;;4.10;2.40;;;;;;;;;;6216751;28;20622;-81
2021/07/30 13:27:22;;;;;;;3.92;2.70;;;;;;;;;;6215013;28;20056;-80
2021/07/30 13:30:23;;;;;;;4.00;2.60;;;;;;;;;;6224129;28;20050;-81
2021/07/30 13:33:25;;;;;;;3.42;2.53;;;;;;;;;;6216879;28;20130;-82
2021/07/30 13:36:26;;;;;;;3.33;2.03;;;;;;;;;;6234750;28;20059;-80
2021/07/30 13:39:28;;;;;;;3.08;2.08;;;;;;;;;;6206042;28;20263;-81
2021/07/30 13:42:29;;;;;;;3.22;2.20;;;;;;;;;;6200640;28;20065;-82
2021/07/30 13:45:36;;;;;;;3.28;2.20;;;;;;;;;;6237544;28;20119;-82
2021/07/30 13:48:38;;;;;;;5.20;2.80;;;;;;;;;;6239396;28;20112;-83
2021/07/30 13:51:40;;;;;;;3.83;2.40;;;;;;;;;;6215160;28;20125;-82
2021/07/30 13:54:42;;;;;;;3.40;2.20;;;;;;;;;;6206679;28;20049;-81
2021/07/30 13:57:43;;;;;;;2.75;2.10;;;;;;;;;;6206971;28;20171;-81
2021/07/30 14:00:46;;;;;;;3.78;2.50;;;;;;;;;;6217094;28;20151;-82
2021/07/30 14:03:48;;;;;;;3.45;2.50;;;;;;;;;;6216811;28;20042;-82
2021/07/30 14:06:50;;;;;;;2.97;2.50;;;;;;;;;;6232738;28;20050;-82
2021/07/30 14:09:52;;;;;;;3.85;2.30;;;;;;;;;;6219127;28;20188;-82
2021/07/30 14:12:53;;;;;;;2.85;2.60;;;;;;;;;;6216579;28;20114;-81
2021/07/30 14:15:55;;;;;;;3.05;2.33;;;;;;;;;;6226931;28;20046;-83
2021/07/30 14:18:57;;;;;;;2.93;2.50;;;;;;;;;;6226522;28;20048;-81
2021/07/30 14:21:58;;;;;;;3.75;2.58;;;;;;;;;;6237104;28;20578;-81
2021/07/30 14:25:00;;;;;;;5.82;2.70;;;;;;;;;;6229735;28;20045;-81
2021/07/30 14:28:02;;;;;;;3.35;2.55;;;;;;;;;;6224912;28;20107;-82
2021/07/30 14:31:04;;;;;;;4.63;2.60;;;;;;;;;;6223259;28;20044;-82
2021/07/30 14:34:08;;;;;;;3.47;2.47;;;;;;;;;;6228823;28;20124;-81
2021/07/30 14:37:09;;;;;;;3.38;2.65;;;;;;;;;;6229303;28;20038;-83
2021/07/30 14:40:15;;;;;;;2.97;2.40;;;;;;;;;;6239862;28;20041;-81
2021/07/30 14:43:17;;;;;;;2.70;2.28;;;;;;;;;;6211115;28;20045;-81
2021/07/30 14:46:26;;;;;;;2.70;2.20;;;;;;;;;;6210967;28;20124;-79
2021/07/30 14:49:28;;;;;;;2.85;2.40;;;;;;;;;;6228415;28;20042;-77
2021/07/30 14:52:29;;;;;;;2.38;2.10;;;;;;;;;;6236916;28;20135;-82
2021/07/30 14:55:31;;;;;;;3.35;2.40;;;;;;;;;;6238807;28;20093;-78
2021/07/30 14:58:36;;;;;;;3.63;2.30;;;;;;;;;;6236133;28;20567;-79
2021/07/30 15:01:38;;;;;;;2.42;2.22;;;;;;;;;;6235627;28;21019;-79
2021/07/30 15:04:39;;;;;;;4.40;2.58;;;;;;;;;;6235251;28;20176;-79
2021/07/30 15:07:41;;;;;;;2.60;2.40;;;;;;;;;;6236975;28;20146;-79
2021/07/30 15:10:44;;;;;;;3.83;2.63;;;;;;;;;;6236169;28;20045;-79
2021/07/30 15:13:45;;;;;;;2.65;2.42;;;;;;;;;;6218195;28;20057;-78
2021/07/30 15:16:47;;;;;;;68.03;9.05;;;;;;;;;;6237570;28;20419;-78
2021/07/30 15:19:49;;;;;;;3.67;2.53;;;;;;;;;;6216921;28;20503;-79
2021/07/30 15:22:51;;;;;;;4.95;2.83;;;;;;;;;;6237477;28;20055;-78
2021/07/30 15:25:53;;;;;;;3.07;2.77;;;;;;;;;;6237094;28;20053;-80
2021/07/30 15:29:00;;;;;;;3.15;2.50;;;;;;;;;;6238725;28;20041;-80
2021/07/30 15:32:01;;;;;;;3.60;2.60;;;;;;;;;;6238577;28;20052;-80
2021/07/30 15:35:03;;;;;;;4.80;2.90;;;;;;;;;;6236241;28;20417;-79
2021/07/30 15:38:05;;;;;;;3.15;2.80;;;;;;;;;;6236052;28;20172;-78
2021/07/30 15:41:08;;;;;;;3.67;2.80;;;;;;;;;;6238843;28;20415;-79
2021/07/30 15:44:10;;;;;;;5.53;2.88;;;;;;;;;;6239147;28;20042;-79
2021/07/30 15:47:12;;;;;;;3.35;2.97;;;;;;;;;;6239501;28;20111;-79
2021/07/30 15:50:13;;;;;;;3.00;2.80;;;;;;;;;;6239591;28;20045;-79
2021/07/30 15:53:15;;;;;;;5.25;2.78;;;;;;;;;;6239790;28;20172;-79
2021/07/30 15:56:18;;;;;;;4.78;3.10;;;;;;;;;;6240265;28;20046;-78
2021/07/30 15:59:20;;;;;;;5.25;4.75;;;;;;;;;;6237201;28;20041;-78
2021/07/30 16:02:21;;;;;;;3.90;2.87;;;;;;;;;;6239227;28;20037;-77
2021/07/30 16:05:23;;;;;;;4.63;2.92;;;;;;;;;;6229521;28;21061;-77
2021/07/30 16:08:25;;;;;;;4.05;3.05;;;;;;;;;;6236639;28;20124;-77
2021/07/30 16:11:26;;;;;;;4.18;3.08;;;;;;;;;;6238981;28;20049;-77
2021/07/30 16:14:28;;;;;;;3.03;2.80;;;;;;;;;;6237497;28;20113;-79
2021/07/30 16:17:30;;;;;;;6.82;2.90;;;;;;;;;;6238238;28;20060;-77
2021/07/30 16:20:31;;;;;;;3.90;3.03;;;;;;;;;;6197803;28;20091;-78
2021/07/30 16:23:35;;;;;;;4.70;3.15;;;;;;;;;;6232598;28;21695;-77
2021/07/30 16:26:36;;;;;;;2.95;2.70;;;;;;;;;;6208593;28;20052;-80
2021/07/30 16:29:38;;;;;;;2.70;2.50;;;;;;;;;;6226197;28;20433;-78
2021/07/30 16:32:40;;;;;;;4.00;3.00;;;;;;;;;;6238219;28;20043;-79
2021/07/30 16:35:41;;;;;;;4.13;3.00;;;;;;;;;;6203509;28;20205;-79
2021/07/30 16:38:43;;;;;;;3.90;3.38;;;;;;;;;;6224268;28;20141;-78
2021/07/30 16:41:44;;;;;;;7.10;3.17;;;;;;;;;;6238999;28;20053;-77
2021/07/30 16:44:46;;;;;;;5.10;3.20;;;;;;;;;;6235360;28;21027;-78
2021/07/30 16:47:47;;;;;;;3.22;2.92;;;;;;;;;;6214544;28;20140;-77
2021/07/30 16:50:49;;;;;;;2.90;2.60;;;;;;;;;;6203296;28;20050;-79
2021/07/30 16:53:51;;;;;;;3.33;3.03;;;;;;;;;;6210785;28;20046;-80
2021/07/30 16:56:52;;;;;;;4.33;2.80;;;;;;;;;;6219991;28;20053;-76
2021/07/30 16:59:54;;;;;;;4.40;3.20;;;;;;;;;;6212516;28;20045;-78
2021/07/30 17:02:57;;;;;;;4.10;3.40;;;;;;;;;;6207932;28;20041;-79
2021/07/30 17:06:00;;;;;;;4.88;3.25;;;;;;;;;;6233988;28;20041;-79
2021/07/30 17:09:02;;;;;;;4.47;3.00;;;;;;;;;;6234965;28;20502;-77
2021/07/30 17:12:04;;;;;;;3.70;3.30;;;;;;;;;;6235394;28;20052;-77
2021/07/30 17:15:06;;;;;;;5.83;3.03;;;;;;;;;;6197832;28;20384;-78
2021/07/30 17:18:08;;;;;;;3.72;2.97;;;;;;;;;;6234885;28;20440;-77
2021/07/30 17:21:10;;;;;;;4.83;2.90;;;;;;;;;;6235834;28;20099;-77
2021/07/30 17:24:12;;;;;;;3.70;2.88;;;;;;;;;;6229528;28;20041;-78
2021/07/30 17:27:14;;;;;;;4.35;3.25;;;;;;;;;;6211982;28;20038;-77
2021/07/30 17:30:16;;;;;;;4.38;3.22;;;;;;;;;;6235799;28;20049;-76
2021/07/30 17:33:17;;;;;;;3.80;2.90;;;;;;;;;;6218844;28;20041;-78
2021/07/30 17:36:19;;;;;;;5.17;3.07;;;;;;;;;;6216605;28;20095;-78
2021/07/30 17:39:21;;;;;;;3.92;3.25;;;;;;;;;;6218977;28;20038;-76
2021/07/30 17:42:23;;;;;;;3.65;3.30;;;;;;;;;;6218506;28;20033;-76
2021/07/30 17:45:25;;;;;;;6.82;3.10;;;;;;;;;;6232094;28;20072;-76
2021/07/30 17:48:26;;;;;;;5.45;3.10;;;;;;;;;;6210860;28;20053;-76
2021/07/30 17:51:28;;;;;;;4.65;2.95;;;;;;;;;;6233876;28;20152;-77
2021/07/30 17:54:30;;;;;;;5.03;3.03;;;;;;;;;;6232403;28;20042;-77
2021/07/30 17:57:32;;;;;;;4.28;3.22;;;;;;;;;;6209956;28;20037;-77
2021/07/30 18:00:35;;;;;;;4.18;3.30;;;;;;;;;;6218911;28;20114;-77
2021/07/30 18:03:37;;;;;;;5.55;3.28;;;;;;;;;;6232382;28;20418;-77
2021/07/30 18:06:40;;;;;;;5.05;3.28;;;;;;;;;;6202536;28;20087;-77
2021/07/30 18:09:41;;;;;;;5.03;3.20;;;;;;;;;;6216717;28;20052;-77
2021/07/30 18:12:44;;;;;;;;;;;;;;;;;;6235827;28;20485;-77
2021/07/30 18:15:45;;;;;;;4.63;3.20;;;;;;;;;;6204191;28;20051;-78
2021/07/30 18:18:48;;;;;;;4.93;3.22;;;;;;;;;;6205614;28;20041;-77